sensor_id;sensor_type;location;lat;lon;timestamp;temperature;humidity
23783;DHT22;12071;50.850;4.446;2022-10-16T00:00:44;14.90;1.00
23783;DHT22;12071;50.850;4.446;2022-10-16T00:03:10;15.00;1.00
23783;DHT22;12071;50.850;4.446;2022-10-16T00:05:42;14.90;1.00
23783;DHT22;12071;50.850;4.446;2022-10-16T00:08:12;15.10;1.00
23783;DHT22;12071;50.850;4.446;2022-10-16T00:10:39;15.00;1.00
23783;DHT22;12071;50.850;4.446;2022-10-16T00:13:05;14.90;1.00
23783;DHT22;12071;50.850;4.446;2022-10-16T00:15:34;14.60;1.00
23783;DHT22;12071;50.850;4.446;2022-10-16T00:18:01;14.70;1.00
23783;DHT22;12071;50.850;4.446;2022-10-16T00:20:27;15.00;1.00
23783;DHT22;12071;50.850;4.446;2022-10-16T00:22:53;14.90;1.00
23783;DHT22;12071;50.850;4.446;2022-10-16T00:25:18;14.90;1.00
23783;DHT22;12071;50.850;4.446;2022-10-16T00:27:44;14.90;1.00
23783;DHT22;12071;50.850;4.446;2022-10-16T00:30:10;14.90;1.00
23783;DHT22;12071;50.850;4.446;2022-10-16T00:32:36;14.80;1.00
23783;DHT22;12071;50.850;4.446;2022-10-16T00:35:01;14.80;1.00
23783;DHT22;12071;50.850;4.446;2022-10-16T00:37:29;14.80;1.00
23783;DHT22;12071;50.850;4.446;2022-10-16T00:39:54;14.50;1.00
23783;DHT22;12071;50.850;4.446;2022-10-16T00:42:20;14.40;1.00
23783;DHT22;12071;50.850;4.446;2022-10-16T00:47:26;14.60;1.00
23783;DHT22;12071;50.850;4.446;2022-10-16T00:49:58;14.60;1.00
23783;DHT22;12071;50.850;4.446;2022-10-16T00:52:25;14.80;1.00
23783;DHT22;12071;50.850;4.446;2022-10-16T00:54:52;14.50;1.00
23783;DHT22;12071;50.850;4.446;2022-10-16T00:57:18;14.30;1.60
23783;DHT22;12071;50.850;4.446;2022-10-16T00:59:45;14.40;6.80
23783;DHT22;12071;50.850;4.446;2022-10-16T01:02:13;14.60;1.00
23783;DHT22;12071;50.850;4.446;2022-10-16T01:04:48;14.60;1.00
23783;DHT22;12071;50.850;4.446;2022-10-16T01:10:30;14.60;1.00
23783;DHT22;12071;50.850;4.446;2022-10-16T01:13:04;14.40;6.90
23783;DHT22;12071;50.850;4.446;2022-10-16T01:15:45;14.30;12.70
23783;DHT22;12071;50.850;4.446;2022-10-16T01:21:11;14.40;7.20
23783;DHT22;12071;50.850;4.446;2022-10-16T01:32:20;14.40;10.10
23783;DHT22;12071;50.850;4.446;2022-10-16T01:34:59;14.20;21.20
23783;DHT22;12071;50.850;4.446;2022-10-16T01:37:43;14.00;27.40
23783;DHT22;12071;50.850;4.446;2022-10-16T01:40:13;14.20;26.40
23783;DHT22;12071;50.850;4.446;2022-10-16T01:42:42;14.50;20.10
23783;DHT22;12071;50.850;4.446;2022-10-16T01:45:10;14.40;14.30
23783;DHT22;12071;50.850;4.446;2022-10-16T01:47:39;14.40;17.90
23783;DHT22;12071;50.850;4.446;2022-10-16T01:50:05;14.40;15.70
23783;DHT22;12071;50.850;4.446;2022-10-16T01:52:35;14.40;16.70
23783;DHT22;12071;50.850;4.446;2022-10-16T01:55:04;14.30;18.00
23783;DHT22;12071;50.850;4.446;2022-10-16T01:57:32;14.20;24.50
23783;DHT22;12071;50.850;4.446;2022-10-16T02:00:05;14.30;25.50
23783;DHT22;12071;50.850;4.446;2022-10-16T02:02:32;14.10;28.90
23783;DHT22;12071;50.850;4.446;2022-10-16T02:05:04;14.00;36.10
23783;DHT22;12071;50.850;4.446;2022-10-16T02:07:30;14.20;31.90
23783;DHT22;12071;50.850;4.446;2022-10-16T02:09:55;14.30;27.50
23783;DHT22;12071;50.850;4.446;2022-10-16T02:12:31;14.40;26.10
23783;DHT22;12071;50.850;4.446;2022-10-16T02:14:57;14.40;27.80
23783;DHT22;12071;50.850;4.446;2022-10-16T02:17:23;14.40;25.80
23783;DHT22;12071;50.850;4.446;2022-10-16T02:19:51;14.30;27.00
23783;DHT22;12071;50.850;4.446;2022-10-16T02:22:26;14.10;36.80
23783;DHT22;12071;50.850;4.446;2022-10-16T02:24:59;14.00;41.20
23783;DHT22;12071;50.850;4.446;2022-10-16T02:27:45;14.00;48.60
23783;DHT22;12071;50.850;4.446;2022-10-16T02:30:19;14.10;43.00
23783;DHT22;12071;50.850;4.446;2022-10-16T02:32:48;14.30;41.60
23783;DHT22;12071;50.850;4.446;2022-10-16T02:35:17;14.20;36.20
23783;DHT22;12071;50.850;4.446;2022-10-16T02:37:44;14.10;42.80
23783;DHT22;12071;50.850;4.446;2022-10-16T02:40:11;14.00;52.00
23783;DHT22;12071;50.850;4.446;2022-10-16T02:42:39;14.10;51.90
23783;DHT22;12071;50.850;4.446;2022-10-16T02:45:07;14.20;50.30
23783;DHT22;12071;50.850;4.446;2022-10-16T02:47:32;14.30;43.70
23783;DHT22;12071;50.850;4.446;2022-10-16T02:49:58;14.30;41.50
23783;DHT22;12071;50.850;4.446;2022-10-16T02:52:24;14.20;44.50
23783;DHT22;12071;50.850;4.446;2022-10-16T02:54:49;14.30;44.40
23783;DHT22;12071;50.850;4.446;2022-10-16T02:57:15;14.30;42.60
23783;DHT22;12071;50.850;4.446;2022-10-16T02:59:41;14.40;41.40
23783;DHT22;12071;50.850;4.446;2022-10-16T03:02:07;14.30;40.80
23783;DHT22;12071;50.850;4.446;2022-10-16T03:04:32;14.20;47.50
23783;DHT22;12071;50.850;4.446;2022-10-16T03:06:58;14.40;45.60
23783;DHT22;12071;50.850;4.446;2022-10-16T03:09:23;14.30;43.10
23783;DHT22;12071;50.850;4.446;2022-10-16T03:11:49;14.30;44.80
23783;DHT22;12071;50.850;4.446;2022-10-16T03:14:15;14.20;51.50
23783;DHT22;12071;50.850;4.446;2022-10-16T03:16:40;14.20;53.10
23783;DHT22;12071;50.850;4.446;2022-10-16T03:19:07;14.20;55.20
23783;DHT22;12071;50.850;4.446;2022-10-16T03:21:32;14.30;51.90
23783;DHT22;12071;50.850;4.446;2022-10-16T03:23:58;14.30;50.00
23783;DHT22;12071;50.850;4.446;2022-10-16T03:26:23;14.50;43.50
23783;DHT22;12071;50.850;4.446;2022-10-16T03:28:49;14.50;41.70
23783;DHT22;12071;50.850;4.446;2022-10-16T03:31:16;14.60;38.90
23783;DHT22;12071;50.850;4.446;2022-10-16T03:33:41;14.50;39.80
23783;DHT22;12071;50.850;4.446;2022-10-16T03:36:07;14.50;40.90
23783;DHT22;12071;50.850;4.446;2022-10-16T03:38:33;14.60;41.90
23783;DHT22;12071;50.850;4.446;2022-10-16T03:40:58;14.40;42.20
23783;DHT22;12071;50.850;4.446;2022-10-16T03:43:24;14.30;46.30
23783;DHT22;12071;50.850;4.446;2022-10-16T03:45:50;14.40;48.40
23783;DHT22;12071;50.850;4.446;2022-10-16T03:48:17;14.40;45.30
23783;DHT22;12071;50.850;4.446;2022-10-16T03:50:43;14.40;50.00
23783;DHT22;12071;50.850;4.446;2022-10-16T03:53:09;14.40;48.40
23783;DHT22;12071;50.850;4.446;2022-10-16T03:55:35;14.40;49.30
23783;DHT22;12071;50.850;4.446;2022-10-16T03:58:01;14.60;45.20
23783;DHT22;12071;50.850;4.446;2022-10-16T04:00:27;14.40;41.80
23783;DHT22;12071;50.850;4.446;2022-10-16T04:02:52;14.30;49.80
23783;DHT22;12071;50.850;4.446;2022-10-16T04:05:18;14.50;45.40
23783;DHT22;12071;50.850;4.446;2022-10-16T04:07:44;14.50;42.30
23783;DHT22;12071;50.850;4.446;2022-10-16T04:10:09;14.40;43.10
23783;DHT22;12071;50.850;4.446;2022-10-16T04:12:36;14.30;49.40
23783;DHT22;12071;50.850;4.446;2022-10-16T04:15:02;14.40;47.50
23783;DHT22;12071;50.850;4.446;2022-10-16T04:17:28;14.40;46.80
23783;DHT22;12071;50.850;4.446;2022-10-16T04:19:53;14.30;51.50
23783;DHT22;12071;50.850;4.446;2022-10-16T04:22:19;14.40;52.00
23783;DHT22;12071;50.850;4.446;2022-10-16T04:24:44;14.50;46.80
23783;DHT22;12071;50.850;4.446;2022-10-16T04:27:10;14.30;52.40
23783;DHT22;12071;50.850;4.446;2022-10-16T04:29:35;14.30;51.80
23783;DHT22;12071;50.850;4.446;2022-10-16T04:32:01;14.30;51.70
23783;DHT22;12071;50.850;4.446;2022-10-16T04:34:27;14.40;50.50
23783;DHT22;12071;50.850;4.446;2022-10-16T04:36:52;14.40;49.10
23783;DHT22;12071;50.850;4.446;2022-10-16T04:39:18;14.50;45.30
23783;DHT22;12071;50.850;4.446;2022-10-16T04:41:43;14.50;44.70
23783;DHT22;12071;50.850;4.446;2022-10-16T04:44:09;14.40;41.80
23783;DHT22;12071;50.850;4.446;2022-10-16T04:46:35;14.20;53.00
23783;DHT22;12071;50.850;4.446;2022-10-16T04:49:00;14.30;54.60
23783;DHT22;12071;50.850;4.446;2022-10-16T04:51:26;14.00;54.40
23783;DHT22;12071;50.850;4.446;2022-10-16T04:53:53;14.00;62.10
23783;DHT22;12071;50.850;4.446;2022-10-16T04:56:19;14.00;60.20
23783;DHT22;12071;50.850;4.446;2022-10-16T04:58:46;13.90;65.10
23783;DHT22;12071;50.850;4.446;2022-10-16T05:01:11;14.00;66.50
23783;DHT22;12071;50.850;4.446;2022-10-16T05:03:37;14.00;71.30
23783;DHT22;12071;50.850;4.446;2022-10-16T05:06:07;14.00;66.70
23783;DHT22;12071;50.850;4.446;2022-10-16T05:08:33;14.10;67.10
23783;DHT22;12071;50.850;4.446;2022-10-16T05:10:59;13.90;71.90
23783;DHT22;12071;50.850;4.446;2022-10-16T05:13:25;13.90;74.10
23783;DHT22;12071;50.850;4.446;2022-10-16T05:15:51;13.80;78.50
23783;DHT22;12071;50.850;4.446;2022-10-16T05:18:17;13.70;80.80
23783;DHT22;12071;50.850;4.446;2022-10-16T05:20:42;13.90;83.30
23783;DHT22;12071;50.850;4.446;2022-10-16T05:23:08;14.10;79.40
23783;DHT22;12071;50.850;4.446;2022-10-16T05:25:35;14.10;78.10
23783;DHT22;12071;50.850;4.446;2022-10-16T05:28:01;14.10;75.00
23783;DHT22;12071;50.850;4.446;2022-10-16T05:30:27;14.10;74.50
23783;DHT22;12071;50.850;4.446;2022-10-16T05:32:52;14.00;78.10
23783;DHT22;12071;50.850;4.446;2022-10-16T05:35:18;14.00;79.10
23783;DHT22;12071;50.850;4.446;2022-10-16T05:37:45;14.10;76.90
23783;DHT22;12071;50.850;4.446;2022-10-16T05:40:11;14.00;81.60
23783;DHT22;12071;50.850;4.446;2022-10-16T05:42:38;14.10;79.10
23783;DHT22;12071;50.850;4.446;2022-10-16T05:45:11;14.00;75.70
23783;DHT22;12071;50.850;4.446;2022-10-16T05:47:37;14.00;78.00
23783;DHT22;12071;50.850;4.446;2022-10-16T05:50:03;14.00;79.90
23783;DHT22;12071;50.850;4.446;2022-10-16T05:52:29;14.00;77.50
23783;DHT22;12071;50.850;4.446;2022-10-16T05:54:55;13.90;84.50
23783;DHT22;12071;50.850;4.446;2022-10-16T05:57:20;13.80;88.40
23783;DHT22;12071;50.850;4.446;2022-10-16T05:59:46;13.80;88.90
23783;DHT22;12071;50.850;4.446;2022-10-16T06:02:14;13.60;91.50
23783;DHT22;12071;50.850;4.446;2022-10-16T06:04:40;13.80;93.90
23783;DHT22;12071;50.850;4.446;2022-10-16T06:07:06;13.90;92.30
23783;DHT22;12071;50.850;4.446;2022-10-16T06:09:31;13.80;91.10
23783;DHT22;12071;50.850;4.446;2022-10-16T06:11:57;13.90;92.40
23783;DHT22;12071;50.850;4.446;2022-10-16T06:14:23;13.90;91.30
23783;DHT22;12071;50.850;4.446;2022-10-16T06:16:49;13.70;91.30
23783;DHT22;12071;50.850;4.446;2022-10-16T06:19:14;13.70;93.80
23783;DHT22;12071;50.850;4.446;2022-10-16T06:21:41;13.80;92.70
23783;DHT22;12071;50.850;4.446;2022-10-16T06:24:08;13.90;93.20
23783;DHT22;12071;50.850;4.446;2022-10-16T06:26:33;14.00;91.20
23783;DHT22;12071;50.850;4.446;2022-10-16T06:28:59;14.00;90.20
23783;DHT22;12071;50.850;4.446;2022-10-16T06:31:25;14.00;89.90
23783;DHT22;12071;50.850;4.446;2022-10-16T06:33:54;13.90;87.20
23783;DHT22;12071;50.850;4.446;2022-10-16T06:36:20;13.90;91.00
23783;DHT22;12071;50.850;4.446;2022-10-16T06:38:46;14.00;91.30
23783;DHT22;12071;50.850;4.446;2022-10-16T06:41:14;14.00;91.40
23783;DHT22;12071;50.850;4.446;2022-10-16T06:43:40;14.00;91.50
23783;DHT22;12071;50.850;4.446;2022-10-16T06:46:07;14.00;89.90
23783;DHT22;12071;50.850;4.446;2022-10-16T06:48:35;13.80;91.60
23783;DHT22;12071;50.850;4.446;2022-10-16T06:53:27;14.10;92.50
23783;DHT22;12071;50.850;4.446;2022-10-16T06:55:54;14.20;90.80
23783;DHT22;12071;50.850;4.446;2022-10-16T06:58:19;14.20;87.10
23783;DHT22;12071;50.850;4.446;2022-10-16T07:00:46;14.20;83.40
23783;DHT22;12071;50.850;4.446;2022-10-16T07:03:12;14.10;89.30
23783;DHT22;12071;50.850;4.446;2022-10-16T07:05:38;14.20;90.60
23783;DHT22;12071;50.850;4.446;2022-10-16T07:08:04;14.20;89.60
23783;DHT22;12071;50.850;4.446;2022-10-16T07:10:31;14.20;83.80
23783;DHT22;12071;50.850;4.446;2022-10-16T07:12:56;14.30;86.50
23783;DHT22;12071;50.850;4.446;2022-10-16T07:15:22;14.20;88.70
23783;DHT22;12071;50.850;4.446;2022-10-16T07:17:48;14.30;86.90
23783;DHT22;12071;50.850;4.446;2022-10-16T07:20:13;14.30;86.00
23783;DHT22;12071;50.850;4.446;2022-10-16T07:22:39;14.30;86.10
23783;DHT22;12071;50.850;4.446;2022-10-16T07:25:05;14.60;77.20
23783;DHT22;12071;50.850;4.446;2022-10-16T07:27:31;14.70;69.00
23783;DHT22;12071;50.850;4.446;2022-10-16T07:29:59;14.60;70.20
23783;DHT22;12071;50.850;4.446;2022-10-16T07:32:25;14.60;68.20
23783;DHT22;12071;50.850;4.446;2022-10-16T07:34:51;14.50;70.80
23783;DHT22;12071;50.850;4.446;2022-10-16T07:37:17;14.60;71.30
23783;DHT22;12071;50.850;4.446;2022-10-16T07:39:43;14.70;69.50
23783;DHT22;12071;50.850;4.446;2022-10-16T07:42:08;14.80;64.50
23783;DHT22;12071;50.850;4.446;2022-10-16T07:44:34;14.80;58.20
23783;DHT22;12071;50.850;4.446;2022-10-16T07:47:00;15.00;53.30
23783;DHT22;12071;50.850;4.446;2022-10-16T07:49:25;15.00;50.00
23783;DHT22;12071;50.850;4.446;2022-10-16T07:51:51;15.10;48.20
23783;DHT22;12071;50.850;4.446;2022-10-16T07:54:16;15.30;40.10
23783;DHT22;12071;50.850;4.446;2022-10-16T07:56:42;15.30;37.90
23783;DHT22;12071;50.850;4.446;2022-10-16T07:59:08;15.20;33.60
23783;DHT22;12071;50.850;4.446;2022-10-16T08:01:33;15.20;33.70
23783;DHT22;12071;50.850;4.446;2022-10-16T08:03:59;15.20;35.10
23783;DHT22;12071;50.850;4.446;2022-10-16T08:06:24;15.20;35.30
23783;DHT22;12071;50.850;4.446;2022-10-16T08:08:50;15.20;34.00
23783;DHT22;12071;50.850;4.446;2022-10-16T08:11:16;15.20;33.70
23783;DHT22;12071;50.850;4.446;2022-10-16T08:13:42;15.30;33.20
23783;DHT22;12071;50.850;4.446;2022-10-16T08:16:08;15.20;31.10
23783;DHT22;12071;50.850;4.446;2022-10-16T08:18:35;15.20;31.20
23783;DHT22;12071;50.850;4.446;2022-10-16T08:21:02;15.20;33.40
23783;DHT22;12071;50.850;4.446;2022-10-16T08:23:31;15.30;31.20
23783;DHT22;12071;50.850;4.446;2022-10-16T08:26:04;15.40;26.70
23783;DHT22;12071;50.850;4.446;2022-10-16T08:28:30;15.30;25.60
23783;DHT22;12071;50.850;4.446;2022-10-16T08:30:56;15.50;29.60
23783;DHT22;12071;50.850;4.446;2022-10-16T08:33:22;15.60;18.50
23783;DHT22;12071;50.850;4.446;2022-10-16T08:35:56;15.80;12.80
23783;DHT22;12071;50.850;4.446;2022-10-16T08:38:22;15.90;3.20
23783;DHT22;12071;50.850;4.446;2022-10-16T08:40:48;15.80;4.90
23783;DHT22;12071;50.850;4.446;2022-10-16T08:46:06;15.80;1.10
23783;DHT22;12071;50.850;4.446;2022-10-16T08:48:51;15.90;1.00
23783;DHT22;12071;50.850;4.446;2022-10-16T08:51:27;16.10;1.00
23783;DHT22;12071;50.850;4.446;2022-10-16T08:53:59;16.20;1.00
23783;DHT22;12071;50.850;4.446;2022-10-16T08:56:26;16.20;1.00
23783;DHT22;12071;50.850;4.446;2022-10-16T08:58:53;16.20;1.00
23783;DHT22;12071;50.850;4.446;2022-10-16T09:01:22;16.30;1.00
23783;DHT22;12071;50.850;4.446;2022-10-16T09:06:40;16.60;1.00
23783;DHT22;12071;50.850;4.446;2022-10-16T09:12:12;16.70;1.00
23783;DHT22;12071;50.850;4.446;2022-10-16T09:20:42;16.60;1.00
23783;DHT22;12071;50.850;4.446;2022-10-16T09:23:22;16.80;1.00
23783;DHT22;12071;50.850;4.446;2022-10-16T09:25:50;16.80;1.00
23783;DHT22;12071;50.850;4.446;2022-10-16T09:28:17;16.90;1.00
23783;DHT22;12071;50.850;4.446;2022-10-16T09:30:44;16.80;1.00
23783;DHT22;12071;50.850;4.446;2022-10-16T09:33:11;16.90;1.00
23783;DHT22;12071;50.850;4.446;2022-10-16T09:35:42;17.00;1.00
23783;DHT22;12071;50.850;4.446;2022-10-16T09:38:09;17.00;1.00
23783;DHT22;12071;50.850;4.446;2022-10-16T09:40:46;17.00;1.00
23783;DHT22;12071;50.850;4.446;2022-10-16T09:43:31;17.10;1.00
23783;DHT22;12071;50.850;4.446;2022-10-16T09:48:39;17.30;1.00
23783;DHT22;12071;50.850;4.446;2022-10-16T09:53:48;17.30;1.00
23783;DHT22;12071;50.850;4.446;2022-10-16T09:56:25;17.60;1.00
23783;DHT22;12071;50.850;4.446;2022-10-16T09:58:55;17.60;1.00
23783;DHT22;12071;50.850;4.446;2022-10-16T10:01:22;17.90;1.00
23783;DHT22;12071;50.850;4.446;2022-10-16T10:03:50;18.40;99.90
23783;DHT22;12071;50.850;4.446;2022-10-16T10:06:25;18.30;99.90
23783;DHT22;12071;50.850;4.446;2022-10-16T10:11:58;18.20;99.90
23783;DHT22;12071;50.850;4.446;2022-10-16T10:17:23;18.40;99.90
23783;DHT22;12071;50.850;4.446;2022-10-16T10:22:32;18.30;99.90
23783;DHT22;12071;50.850;4.446;2022-10-16T10:25:18;18.50;99.90
23783;DHT22;12071;50.850;4.446;2022-10-16T10:36:16;19.20;99.90
23783;DHT22;12071;50.850;4.446;2022-10-16T10:50:14;19.10;99.90
23783;DHT22;12071;50.850;4.446;2022-10-16T10:53:07;19.20;1.00
23783;DHT22;12071;50.850;4.446;2022-10-16T10:55:57;19.50;1.00
23783;DHT22;12071;50.850;4.446;2022-10-16T10:58:40;19.50;1.00
23783;DHT22;12071;50.850;4.446;2022-10-16T11:01:16;19.70;1.00
23783;DHT22;12071;50.850;4.446;2022-10-16T11:06:50;19.40;1.00
23783;DHT22;12071;50.850;4.446;2022-10-16T11:09:21;19.30;1.00
23783;DHT22;12071;50.850;4.446;2022-10-16T11:14:21;19.60;1.00
23783;DHT22;12071;50.850;4.446;2022-10-16T11:17:02;19.70;1.00
23783;DHT22;12071;50.850;4.446;2022-10-16T11:19:41;19.40;99.90
23783;DHT22;12071;50.850;4.446;2022-10-16T11:25:11;19.30;99.90
23783;DHT22;12071;50.850;4.446;2022-10-16T11:28:23;19.40;1.00
23783;DHT22;12071;50.850;4.446;2022-10-16T11:30:31;19.60;1.00
23783;DHT22;12071;50.850;4.446;2022-10-16T11:38:01;20.40;99.90
23783;DHT22;12071;50.850;4.446;2022-10-16T11:40:31;20.30;99.90
23783;DHT22;12071;50.850;4.446;2022-10-16T11:45:43;20.80;99.90
23783;DHT22;12071;50.850;4.446;2022-10-16T11:48:30;21.00;51.10
23783;DHT22;12071;50.850;4.446;2022-10-16T11:53:53;21.20;1.00
23783;DHT22;12071;50.850;4.446;2022-10-16T11:56:22;21.30;1.00
23783;DHT22;12071;50.850;4.446;2022-10-16T12:02:14;21.10;38.60
23783;DHT22;12071;50.850;4.446;2022-10-16T12:04:43;21.20;1.00
23783;DHT22;12071;50.850;4.446;2022-10-16T12:07:19;20.90;1.00
23783;DHT22;12071;50.850;4.446;2022-10-16T12:09:47;21.10;1.00
23783;DHT22;12071;50.850;4.446;2022-10-16T12:15:24;21.10;1.00
23783;DHT22;12071;50.850;4.446;2022-10-16T12:17:51;21.30;1.00
23783;DHT22;12071;50.850;4.446;2022-10-16T12:23:02;21.30;99.90
23783;DHT22;12071;50.850;4.446;2022-10-16T12:25:36;21.10;1.00
23783;DHT22;12071;50.850;4.446;2022-10-16T12:28:20;21.00;1.00
23783;DHT22;12071;50.850;4.446;2022-10-16T12:30:54;21.30;99.90
23783;DHT22;12071;50.850;4.446;2022-10-16T12:33:32;21.50;99.90
23783;DHT22;12071;50.850;4.446;2022-10-16T12:36:42;21.30;99.90
23783;DHT22;12071;50.850;4.446;2022-10-16T12:38:52;21.30;99.90
23783;DHT22;12071;50.850;4.446;2022-10-16T12:41:32;21.30;99.90
23783;DHT22;12071;50.850;4.446;2022-10-16T12:44:00;21.50;99.90
23783;DHT22;12071;50.850;4.446;2022-10-16T12:51:40;21.60;99.90
23783;DHT22;12071;50.850;4.446;2022-10-16T12:54:15;21.20;99.90
23783;DHT22;12071;50.850;4.446;2022-10-16T13:02:19;21.00;1.00
23783;DHT22;12071;50.850;4.446;2022-10-16T13:05:02;20.80;1.00
23783;DHT22;12071;50.850;4.446;2022-10-16T13:16:16;21.40;39.20
23783;DHT22;12071;50.850;4.446;2022-10-16T13:18:59;21.80;1.00
23783;DHT22;12071;50.850;4.446;2022-10-16T13:24:45;22.00;99.90
23783;DHT22;12071;50.850;4.446;2022-10-16T13:30:02;21.80;1.00
23783;DHT22;12071;50.850;4.446;2022-10-16T13:32:36;21.80;1.00
23783;DHT22;12071;50.850;4.446;2022-10-16T13:35:01;21.70;99.90
23783;DHT22;12071;50.850;4.446;2022-10-16T13:37:29;21.80;99.90
23783;DHT22;12071;50.850;4.446;2022-10-16T13:40:20;21.70;99.90
23783;DHT22;12071;50.850;4.446;2022-10-16T13:42:46;22.00;99.90
23783;DHT22;12071;50.850;4.446;2022-10-16T13:45:24;21.90;99.90
23783;DHT22;12071;50.850;4.446;2022-10-16T13:48:06;21.90;1.00
23783;DHT22;12071;50.850;4.446;2022-10-16T13:50:32;22.00;1.00
23783;DHT22;12071;50.850;4.446;2022-10-16T13:53:12;21.60;1.00
23783;DHT22;12071;50.850;4.446;2022-10-16T13:55:38;21.50;1.00
23783;DHT22;12071;50.850;4.446;2022-10-16T13:58:14;21.60;99.90
23783;DHT22;12071;50.850;4.446;2022-10-16T14:00:51;21.70;99.90
23783;DHT22;12071;50.850;4.446;2022-10-16T14:03:19;21.70;99.90
23783;DHT22;12071;50.850;4.446;2022-10-16T14:05:50;21.80;99.90
23783;DHT22;12071;50.850;4.446;2022-10-16T14:08:17;21.80;99.90
23783;DHT22;12071;50.850;4.446;2022-10-16T14:10:46;21.80;99.90
23783;DHT22;12071;50.850;4.446;2022-10-16T14:13:17;21.90;99.90
23783;DHT22;12071;50.850;4.446;2022-10-16T14:15:47;21.60;13.90
23783;DHT22;12071;50.850;4.446;2022-10-16T14:18:20;21.60;99.90
23783;DHT22;12071;50.850;4.446;2022-10-16T14:20:48;21.40;99.90
23783;DHT22;12071;50.850;4.446;2022-10-16T14:23:36;21.30;99.90
23783;DHT22;12071;50.850;4.446;2022-10-16T14:26:23;21.10;1.00
23783;DHT22;12071;50.850;4.446;2022-10-16T14:29:02;21.20;1.00
23783;DHT22;12071;50.850;4.446;2022-10-16T14:31:33;21.10;1.00
23783;DHT22;12071;50.850;4.446;2022-10-16T14:33:59;21.20;1.00
23783;DHT22;12071;50.850;4.446;2022-10-16T14:36:27;21.40;1.00
23783;DHT22;12071;50.850;4.446;2022-10-16T14:39:06;21.30;99.90
23783;DHT22;12071;50.850;4.446;2022-10-16T14:41:45;21.30;1.00
23783;DHT22;12071;50.850;4.446;2022-10-16T14:44:12;21.40;8.60
23783;DHT22;12071;50.850;4.446;2022-10-16T14:46:40;21.60;1.00
23783;DHT22;12071;50.850;4.446;2022-10-16T14:49:18;21.80;1.00
23783;DHT22;12071;50.850;4.446;2022-10-16T14:51:45;21.80;1.00
23783;DHT22;12071;50.850;4.446;2022-10-16T14:54:16;21.70;1.00
23783;DHT22;12071;50.850;4.446;2022-10-16T14:56:54;21.50;1.00
23783;DHT22;12071;50.850;4.446;2022-10-16T14:59:39;21.50;1.00
23783;DHT22;12071;50.850;4.446;2022-10-16T15:04:47;21.50;23.00
23783;DHT22;12071;50.850;4.446;2022-10-16T15:07:12;21.60;1.00
23783;DHT22;12071;50.850;4.446;2022-10-16T15:09:38;21.40;99.90
23783;DHT22;12071;50.850;4.446;2022-10-16T15:12:04;21.20;99.90
23783;DHT22;12071;50.850;4.446;2022-10-16T15:14:29;21.00;1.00
23783;DHT22;12071;50.850;4.446;2022-10-16T15:16:55;21.00;1.00
23783;DHT22;12071;50.850;4.446;2022-10-16T15:19:20;21.10;99.90
23783;DHT22;12071;50.850;4.446;2022-10-16T15:21:47;21.00;99.90
23783;DHT22;12071;50.850;4.446;2022-10-16T15:24:14;21.00;99.90
23783;DHT22;12071;50.850;4.446;2022-10-16T15:26:40;21.20;99.90
23783;DHT22;12071;50.850;4.446;2022-10-16T15:29:05;21.40;15.70
23783;DHT22;12071;50.850;4.446;2022-10-16T15:31:32;21.40;44.80
23783;DHT22;12071;50.850;4.446;2022-10-16T15:33:57;21.20;84.30
23783;DHT22;12071;50.850;4.446;2022-10-16T15:36:28;20.80;99.90
23783;DHT22;12071;50.850;4.446;2022-10-16T15:38:54;20.50;99.90
23783;DHT22;12071;50.850;4.446;2022-10-16T15:41:20;20.50;99.90
23783;DHT22;12071;50.850;4.446;2022-10-16T15:43:48;20.30;1.00
23783;DHT22;12071;50.850;4.446;2022-10-16T15:46:15;20.30;1.00
23783;DHT22;12071;50.850;4.446;2022-10-16T15:48:42;19.90;1.00
23783;DHT22;12071;50.850;4.446;2022-10-16T15:51:08;19.80;1.00
23783;DHT22;12071;50.850;4.446;2022-10-16T15:53:34;19.80;56.80
23783;DHT22;12071;50.850;4.446;2022-10-16T15:56:05;19.70;92.50
23783;DHT22;12071;50.850;4.446;2022-10-16T15:58:31;19.60;99.90
23783;DHT22;12071;50.850;4.446;2022-10-16T16:00:57;19.60;99.90
23783;DHT22;12071;50.850;4.446;2022-10-16T16:03:25;19.60;99.90
23783;DHT22;12071;50.850;4.446;2022-10-16T16:05:51;19.50;99.90
23783;DHT22;12071;50.850;4.446;2022-10-16T16:08:17;19.40;99.90
23783;DHT22;12071;50.850;4.446;2022-10-16T16:10:43;19.40;99.90
23783;DHT22;12071;50.850;4.446;2022-10-16T16:13:08;19.30;99.90
23783;DHT22;12071;50.850;4.446;2022-10-16T16:15:34;19.10;99.90
23783;DHT22;12071;50.850;4.446;2022-10-16T16:17:59;19.10;99.90
23783;DHT22;12071;50.850;4.446;2022-10-16T16:20:27;19.00;99.90
23783;DHT22;12071;50.850;4.446;2022-10-16T16:22:53;18.90;99.90
23783;DHT22;12071;50.850;4.446;2022-10-16T16:25:18;18.90;99.90
23783;DHT22;12071;50.850;4.446;2022-10-16T16:27:44;18.80;99.90
23783;DHT22;12071;50.850;4.446;2022-10-16T16:30:11;18.80;99.90
23783;DHT22;12071;50.850;4.446;2022-10-16T16:32:36;19.00;99.90
23783;DHT22;12071;50.850;4.446;2022-10-16T16:35:03;19.00;99.90
23783;DHT22;12071;50.850;4.446;2022-10-16T16:37:29;18.90;99.90
23783;DHT22;12071;50.850;4.446;2022-10-16T16:39:55;18.80;99.90
23783;DHT22;12071;50.850;4.446;2022-10-16T16:42:26;18.90;99.90
23783;DHT22;12071;50.850;4.446;2022-10-16T16:44:52;18.70;99.90
23783;DHT22;12071;50.850;4.446;2022-10-16T16:47:18;18.70;1.00
23783;DHT22;12071;50.850;4.446;2022-10-16T16:49:44;18.60;1.00
23783;DHT22;12071;50.850;4.446;2022-10-16T16:52:12;18.50;1.00
23783;DHT22;12071;50.850;4.446;2022-10-16T16:54:37;18.50;1.00
23783;DHT22;12071;50.850;4.446;2022-10-16T16:57:04;18.60;1.00
23783;DHT22;12071;50.850;4.446;2022-10-16T16:59:30;18.60;1.00
23783;DHT22;12071;50.850;4.446;2022-10-16T17:02:02;18.50;1.00
23783;DHT22;12071;50.850;4.446;2022-10-16T17:04:28;18.60;1.00
23783;DHT22;12071;50.850;4.446;2022-10-16T17:06:54;18.90;1.00
23783;DHT22;12071;50.850;4.446;2022-10-16T17:09:21;18.70;1.00
23783;DHT22;12071;50.850;4.446;2022-10-16T17:11:46;18.40;1.00
23783;DHT22;12071;50.850;4.446;2022-10-16T17:14:14;18.30;1.00
23783;DHT22;12071;50.850;4.446;2022-10-16T17:16:40;18.40;1.00
23783;DHT22;12071;50.850;4.446;2022-10-16T17:19:12;18.40;1.00
23783;DHT22;12071;50.850;4.446;2022-10-16T17:21:38;18.30;1.00
23783;DHT22;12071;50.850;4.446;2022-10-16T17:24:04;18.40;1.00
23783;DHT22;12071;50.850;4.446;2022-10-16T17:26:31;18.30;1.00
23783;DHT22;12071;50.850;4.446;2022-10-16T17:28:59;18.20;1.00
23783;DHT22;12071;50.850;4.446;2022-10-16T17:31:31;18.20;1.00
23783;DHT22;12071;50.850;4.446;2022-10-16T17:34:01;18.60;1.00
23783;DHT22;12071;50.850;4.446;2022-10-16T17:36:30;18.60;1.00
23783;DHT22;12071;50.850;4.446;2022-10-16T17:39:03;18.40;1.00
23783;DHT22;12071;50.850;4.446;2022-10-16T17:41:30;18.20;1.00
23783;DHT22;12071;50.850;4.446;2022-10-16T17:43:56;18.00;1.00
23783;DHT22;12071;50.850;4.446;2022-10-16T17:46:22;17.70;9.50
23783;DHT22;12071;50.850;4.446;2022-10-16T17:48:51;17.60;20.10